Terminal Aerodrome Forecast
Issued by NWS Upton, NY

Home | Current Version | Previous Version | Text Only | Print | Product List | Glossary On
Versions: 1 2 3 4 5 6 7 8 9 10 11 12 13 14 15 16 17 18 19 20 21 22 23 24 25 26 27 28 29 30 31 32 33 34
188
FTUS41 KOKX 161725
TAFISP
TAF
KISP 161725Z 1618/1718 26014G20KT P6SM SCT025 BKN035
     FM162100 27013G19KT P6SM VCSH SCT025 BKN035
     FM170000 30011KT P6SM VCSH SCT025 BKN035
     FM170100 30011KT P6SM SCT025 BKN035
     FM170200 32010KT P6SM SCT035
     FM170700 33006KT P6SM FEW035=

USA.gov is the U.S. government's official web portal to all federal, state and local government web resources and services.